Time;durP1;ratioP1;P1;durP2;ratioP2;P2;SDS_P1;SDS_P2;PMS_P1;PMS_P2;Temp;Humidity;BMP_temperature;BMP_pressure;BME280_temperature;BME280_humidity;BME280_pressure;Samples;Min_cycle;Max_cycle;Signal;HPM_P1;HPM_P2
2023/03/11 00:00:32;;;;;;;;;;;0.40;99.90;;;;;;5071729;28;19941;-46
2023/03/11 00:02:59;;;;;;;;;;;0.40;99.90;;;;;;5065301;28;19976;-38
2023/03/11 00:05:26;;;;;;;;;;;0.40;99.90;;;;;;5063717;28;19986;-50
2023/03/11 00:07:53;;;;;;;;;;;0.40;99.90;;;;;;5071306;28;20349;-47
2023/03/11 00:10:21;;;;;;;;;;;0.50;99.90;;;;;;5073900;28;19982;-46
2023/03/11 00:12:48;;;;;;;;;;;0.50;99.90;;;;;;5071413;28;19948;-47
2023/03/11 00:15:15;;;;;;;;;;;0.50;99.90;;;;;;5071121;28;20400;-44
2023/03/11 00:17:41;;;;;;;;;;;0.50;99.90;;;;;;5054272;28;19975;-48
2023/03/11 00:20:09;;;;;;;;;;;0.50;99.90;;;;;;5071560;28;20002;-46
2023/03/11 00:22:35;;;;;;;;;;;0.50;99.90;;;;;;5074516;28;19946;-47
2023/03/11 00:25:02;;;;;;;;;;;0.50;99.90;;;;;;5058721;28;19998;-46
2023/03/11 00:27:30;;;;;;;;;;;0.50;99.90;;;;;;5074132;28;19946;-48
2023/03/11 00:29:57;;;;;;;;;;;0.50;99.90;;;;;;5059910;28;19983;-44
2023/03/11 00:32:23;;;;;;;;;;;0.50;99.90;;;;;;5076057;28;19962;-42
2023/03/11 00:34:50;;;;;;;;;;;0.50;99.90;;;;;;5056643;28;20420;-48
2023/03/11 00:37:16;;;;;;;;;;;0.50;99.90;;;;;;5057304;28;19946;-50
2023/03/11 00:39:43;;;;;;;;;;;0.50;99.90;;;;;;5051102;28;19991;-49
2023/03/11 00:42:10;;;;;;;;;;;0.40;99.90;;;;;;5055594;28;20029;-48
2023/03/11 00:44:38;;;;;;;;;;;0.50;99.90;;;;;;5074558;28;19941;-49
2023/03/11 00:47:04;;;;;;;;;;;0.40;99.90;;;;;;5057214;28;19988;-47
2023/03/11 00:49:31;;;;;;;;;;;0.50;99.90;;;;;;5076114;28;19972;-47
2023/03/11 00:51:58;;;;;;;;;;;0.40;99.90;;;;;;5061071;28;20458;-48
2023/03/11 00:54:24;;;;;;;;;;;0.40;99.90;;;;;;5056682;28;20216;-47
2023/03/11 00:56:51;;;;;;;;;;;0.40;99.90;;;;;;5073469;28;19947;-47
2023/03/11 00:59:18;;;;;;;;;;;0.40;99.90;;;;;;5074589;28;19941;-45
2023/03/11 01:01:46;;;;;;;;;;;0.50;99.90;;;;;;5073331;28;19949;-43
2023/03/11 01:04:12;;;;;;;;;;;0.40;99.90;;;;;;5057935;28;19946;-45
2023/03/11 01:06:39;;;;;;;;;;;0.40;99.90;;;;;;5040718;28;19937;-46
2023/03/11 01:09:06;;;;;;;;;;;0.40;99.90;;;;;;5054032;28;20025;-42
2023/03/11 01:11:32;;;;;;;;;;;0.40;99.90;;;;;;5073689;28;20360;-48
2023/03/11 01:13:59;;;;;;;;;;;0.40;99.90;;;;;;5071987;28;19938;-46
2023/03/11 01:16:25;;;;;;;;;;;0.40;99.90;;;;;;5074733;28;19987;-49
2023/03/11 01:18:53;;;;;;;;;;;0.40;99.90;;;;;;5073376;28;19985;-43
2023/03/11 01:21:20;;;;;;;;;;;0.40;99.90;;;;;;5056503;28;19945;-46
2023/03/11 01:23:47;;;;;;;;;;;0.50;99.90;;;;;;5073025;28;19992;-46
2023/03/11 01:26:14;;;;;;;;;;;0.40;99.90;;;;;;5056201;28;20372;-46
2023/03/11 01:28:41;;;;;;;;;;;0.40;99.90;;;;;;5089298;28;19949;-42
2023/03/11 01:31:08;;;;;;;;;;;0.40;99.90;;;;;;5057246;28;19990;-42
2023/03/11 01:33:35;;;;;;;;;;;0.50;99.90;;;;;;5072265;28;19992;-45
2023/03/11 01:36:03;;;;;;;;;;;0.40;99.90;;;;;;5073526;28;20311;-45
2023/03/11 01:38:30;;;;;;;;;;;0.40;99.90;;;;;;5056695;28;19964;-46
2023/03/11 01:40:56;;;;;;;;;;;0.40;99.90;;;;;;5074299;28;19998;-43
2023/03/11 01:43:40;;;;;;;;;;;0.40;99.90;;;;;;5059635;28;20079;-50
2023/03/11 01:46:08;;;;;;;;;;;0.40;99.90;;;;;;5069894;28;20428;-48
2023/03/11 01:48:37;;;;;;;;;;;0.40;99.90;;;;;;5049069;28;19943;-47
2023/03/11 01:51:05;;;;;;;;;;;0.40;99.90;;;;;;5046813;28;19950;-44
2023/03/11 01:53:32;;;;;;;;;;;0.40;99.90;;;;;;5055014;28;19996;-45
2023/03/11 01:55:58;;;;;;;;;;;0.40;99.90;;;;;;5070905;28;19949;-46
2023/03/11 01:58:26;;;;;;;;;;;0.40;99.90;;;;;;5054664;28;20316;-46
2023/03/11 02:00:53;;;;;;;;;;;0.40;99.90;;;;;;5048910;28;20438;-48
2023/03/11 02:03:21;;;;;;;;;;;0.40;99.90;;;;;;5072607;28;20005;-44
2023/03/11 02:05:48;;;;;;;;;;;0.40;99.90;;;;;;5072074;28;20003;-48
2023/03/11 02:08:16;;;;;;;;;;;0.40;99.90;;;;;;5054995;28;19974;-42
2023/03/11 02:10:42;;;;;;;;;;;0.40;99.90;;;;;;5072417;28;20005;-45
2023/03/11 02:13:09;;;;;;;;;;;0.40;99.90;;;;;;5054495;28;19956;-46
2023/03/11 02:15:36;;;;;;;;;;;0.30;99.90;;;;;;5072671;28;20369;-47
2023/03/11 02:18:02;;;;;;;;;;;0.40;99.90;;;;;;5071687;28;19937;-42
2023/03/11 02:20:32;;;;;;;;;;;0.30;99.90;;;;;;5056074;28;19938;-46
2023/03/11 02:22:59;;;;;;;;;;;0.30;99.90;;;;;;5065951;28;19943;-46
2023/03/11 02:25:30;;;;;;;;;;;0.30;99.90;;;;;;5068336;28;19946;-45
2023/03/11 02:27:58;;;;;;;;;;;0.30;99.90;;;;;;5074118;28;19987;-45
2023/03/11 02:30:24;;;;;;;;;;;0.30;99.90;;;;;;5072691;28;19985;-44
2023/03/11 02:32:51;;;;;;;;;;;0.30;99.90;;;;;;5053715;28;20417;-45
2023/03/11 02:35:18;;;;;;;;;;;0.30;99.90;;;;;;5066604;28;19975;-45
2023/03/11 02:37:45;;;;;;;;;;;0.30;99.90;;;;;;5055249;28;19985;-47
2023/03/11 02:40:34;;;;;;;;;;;0.30;99.90;;;;;;5068565;28;19943;-45
2023/03/11 02:43:02;;;;;;;;;;;0.30;99.90;;;;;;5052857;28;19995;-44
2023/03/11 02:45:29;;;;;;;;;;;0.30;99.90;;;;;;5071596;28;19940;-48
2023/03/11 02:47:56;;;;;;;;;;;0.30;99.90;;;;;;5087418;28;19954;-46
2023/03/11 02:50:24;;;;;;;;;;;0.30;99.90;;;;;;5073074;28;19989;-48
2023/03/11 02:52:50;;;;;;;;;;;0.20;99.90;;;;;;5071005;28;20327;-44
2023/03/11 02:55:19;;;;;;;;;;;0.20;99.90;;;;;;5052899;28;19996;-44
2023/03/11 02:57:46;;;;;;;;;;;0.20;99.90;;;;;;5071964;28;19945;-44
2023/03/11 03:00:15;;;;;;;;;;;0.10;99.90;;;;;;5052410;28;19981;-45
2023/03/11 03:02:42;;;;;;;;;;;0.10;99.90;;;;;;5072264;28;19966;-42
2023/03/11 03:05:09;;;;;;;;;;;0.10;99.90;;;;;;5053604;28;19988;-44
2023/03/11 03:07:35;;;;;;;;;;;0.10;99.90;;;;;;5052907;28;20393;-43
2023/03/11 03:10:02;;;;;;;;;;;0.00;99.90;;;;;;5070438;28;20409;-45
2023/03/11 03:12:29;;;;;;;;;;;0.00;99.90;;;;;;5053638;28;20397;-45
2023/03/11 03:14:56;;;;;;;;;;;0.00;99.90;;;;;;5071556;28;19946;-42
2023/03/11 03:17:24;;;;;;;;;;;0.00;99.90;;;;;;5074791;28;20308;-46
2023/03/11 03:19:51;;;;;;;;;;;-0.10;99.90;;;;;;5071017;28;20071;-45
2023/03/11 03:22:18;;;;;;;;;;;-0.10;99.90;;;;;;5071902;28;19943;-45
2023/03/11 03:24:44;;;;;;;;;;;-0.10;99.90;;;;;;5070876;28;20006;-50
2023/03/11 03:27:11;;;;;;;;;;;-0.10;99.90;;;;;;5055019;28;19943;-43
2023/03/11 03:29:38;;;;;;;;;;;-0.10;99.90;;;;;;5071908;28;19947;-47
2023/03/11 03:32:05;;;;;;;;;;;-0.10;99.90;;;;;;5071342;28;20394;-47
2023/03/11 03:34:33;;;;;;;;;;;-0.20;99.90;;;;;;5044489;28;19945;-45
2023/03/11 03:36:59;;;;;;;;;;;-0.20;99.90;;;;;;5065044;28;20397;-40
2023/03/11 03:39:26;;;;;;;;;;;-0.30;99.90;;;;;;5053072;28;19948;-51
2023/03/11 03:41:53;;;;;;;;;;;-0.30;99.90;;;;;;5071343;28;19986;-44
2023/03/11 03:44:19;;;;;;;;;;;-0.30;99.90;;;;;;5071526;28;19985;-45
2023/03/11 03:46:46;;;;;;;;;;;-0.30;99.90;;;;;;5054288;28;19997;-48
2023/03/11 03:49:12;;;;;;;;;;;-0.40;99.90;;;;;;5048882;28;20029;-47
2023/03/11 03:51:40;;;;;;;;;;;-0.40;99.90;;;;;;5051904;28;19938;-47
2023/03/11 03:54:07;;;;;;;;;;;-0.50;99.90;;;;;;5053643;28;19942;-45
2023/03/11 03:56:34;;;;;;;;;;;-0.50;99.90;;;;;;5094967;28;20404;-46
2023/03/11 03:59:00;;;;;;;;;;;-0.50;99.90;;;;;;5077433;28;20391;-48
2023/03/11 04:01:27;;;;;;;;;;;-0.60;99.90;;;;;;5083768;28;20393;-50
2023/03/11 04:03:53;;;;;;;;;;;-0.60;99.90;;;;;;5057837;28;19984;-47
2023/03/11 04:06:20;;;;;;;;;;;-0.60;99.90;;;;;;5056830;28;19989;-50
2023/03/11 04:08:48;;;;;;;;;;;-0.70;99.90;;;;;;5074890;28;20369;-48
2023/03/11 04:11:15;;;;;;;;;;;-0.70;99.90;;;;;;5057094;28;20312;-46
2023/03/11 04:13:43;;;;;;;;;;;-0.70;99.90;;;;;;5074617;28;19963;-45
2023/03/11 04:16:10;;;;;;;;;;;-0.70;99.90;;;;;;5067101;28;19991;-51
2023/03/11 04:18:37;;;;;;;;;;;-0.70;99.90;;;;;;5052155;28;20391;-43
2023/03/11 04:21:04;;;;;;;;;;;-0.70;99.90;;;;;;5075480;28;19981;-53
2023/03/11 04:23:31;;;;;;;;;;;-0.80;99.90;;;;;;5059317;28;20030;-50
2023/03/11 04:25:59;;;;;;;;;;;-0.80;99.90;;;;;;5080341;28;20423;-48
2023/03/11 04:28:26;;;;;;;;;;;-0.80;99.90;;;;;;5073170;28;19998;-51
2023/03/11 04:30:53;;;;;;;;;;;-0.80;99.90;;;;;;5075173;28;19991;-51
2023/03/11 04:33:19;;;;;;;;;;;-0.80;99.90;;;;;;5056995;28;20013;-50
2023/03/11 04:35:46;;;;;;;;;;;-0.80;99.90;;;;;;5057426;28;19945;-49
2023/03/11 04:38:13;;;;;;;;;;;-0.90;99.90;;;;;;5057259;28;19940;-43
2023/03/11 04:40:39;;;;;;;;;;;-0.90;99.90;;;;;;5067323;28;19990;-51
2023/03/11 04:43:08;;;;;;;;;;;-0.90;99.90;;;;;;5056552;28;19942;-51
2023/03/11 04:45:35;;;;;;;;;;;-1.00;99.90;;;;;;5074480;28;19943;-51
2023/03/11 04:48:02;;;;;;;;;;;-1.00;99.90;;;;;;5055049;28;19949;-49
2023/03/11 04:50:28;;;;;;;;;;;-1.00;99.90;;;;;;5039491;28;19945;-50
2023/03/11 04:52:55;;;;;;;;;;;-1.00;99.90;;;;;;5049999;28;19995;-49
2023/03/11 04:55:22;;;;;;;;;;;-1.10;99.90;;;;;;5073369;28;20340;-46
2023/03/11 04:57:49;;;;;;;;;;;-1.10;99.90;;;;;;5053468;28;19984;-48
2023/03/11 05:00:21;;;;;;;;;;;-1.00;99.90;;;;;;5073479;28;19939;-41
2023/03/11 05:02:48;;;;;;;;;;;-1.10;99.90;;;;;;5068481;28;20028;-50
2023/03/11 05:05:15;;;;;;;;;;;-1.10;99.90;;;;;;5070744;28;20394;-47
2023/03/11 05:07:41;;;;;;;;;;;-1.10;99.90;;;;;;5075574;28;19939;-47
2023/03/11 05:10:09;;;;;;;;;;;-1.10;99.90;;;;;;5055130;28;19954;-47
2023/03/11 05:12:35;;;;;;;;;;;-1.20;99.90;;;;;;5072630;28;20050;-50
2023/03/11 05:15:02;;;;;;;;;;;-1.10;99.90;;;;;;5055050;28;19947;-43
2023/03/11 05:17:30;;;;;;;;;;;-1.20;99.90;;;;;;5055947;28;19995;-49
2023/03/11 05:19:57;;;;;;;;;;;-1.20;99.90;;;;;;5055552;28;20000;-49
2023/03/11 05:22:24;;;;;;;;;;;-1.20;99.90;;;;;;5073419;28;19945;-48
2023/03/11 05:24:50;;;;;;;;;;;-1.20;99.90;;;;;;5073204;28;19982;-48
2023/03/11 05:27:17;;;;;;;;;;;-1.20;99.90;;;;;;5055762;28;19995;-48
2023/03/11 05:29:44;;;;;;;;;;;-1.20;99.90;;;;;;5054247;28;20455;-45
2023/03/11 05:32:11;;;;;;;;;;;-1.30;99.90;;;;;;5056829;28;19946;-47
2023/03/11 05:34:39;;;;;;;;;;;-1.30;99.90;;;;;;5073392;28;19989;-47
2023/03/11 05:37:06;;;;;;;;;;;-1.30;99.90;;;;;;5056001;28;19993;-47
2023/03/11 05:39:33;;;;;;;;;;;-1.30;99.90;;;;;;5072964;28;19947;-45
2023/03/11 05:41:59;;;;;;;;;;;-1.30;99.90;;;;;;5075798;28;19940;-46
2023/03/11 05:44:26;;;;;;;;;;;-1.40;99.90;;;;;;5056468;28;19940;-47
2023/03/11 05:46:53;;;;;;;;;;;-1.40;99.90;;;;;;5073622;28;19942;-46
2023/03/11 05:49:20;;;;;;;;;;;-1.40;99.90;;;;;;5066494;28;20294;-46
2023/03/11 05:51:48;;;;;;;;;;;-1.40;99.90;;;;;;5062780;28;19950;-48
2023/03/11 05:54:15;;;;;;;;;;;-1.40;99.90;;;;;;5055538;28;19960;-45
2023/03/11 05:56:41;;;;;;;;;;;-1.40;99.90;;;;;;5055690;28;20000;-42
2023/03/11 05:59:08;;;;;;;;;;;-1.40;99.90;;;;;;5068653;28;20018;-46
2023/03/11 06:01:35;;;;;;;;;;;-1.40;99.90;;;;;;5050050;28;19946;-49
2023/03/11 06:04:01;;;;;;;;;;;-1.50;99.90;;;;;;5055786;28;19970;-46
2023/03/11 06:06:28;;;;;;;;;;;-1.50;99.90;;;;;;5071864;28;19943;-48
2023/03/11 06:08:56;;;;;;;;;;;-1.50;99.90;;;;;;5042205;28;19988;-47
2023/03/11 06:11:24;;;;;;;;;;;-1.50;99.90;;;;;;5053404;28;20495;-49
2023/03/11 06:13:52;;;;;;;;;;;-1.50;99.90;;;;;;5053330;28;19974;-49
2023/03/11 06:16:18;;;;;;;;;;;-1.50;99.90;;;;;;5071105;28;19950;-49
2023/03/11 06:18:45;;;;;;;;;;;-1.50;99.90;;;;;;5054461;28;20380;-49
2023/03/11 06:21:13;;;;;;;;;;;-1.50;99.90;;;;;;5046839;28;19946;-49
2023/03/11 06:23:39;;;;;;;;;;;-1.50;99.90;;;;;;5073015;28;19973;-47
2023/03/11 06:26:07;;;;;;;;;;;-1.50;99.90;;;;;;5064910;28;20036;-48
2023/03/11 06:28:34;;;;;;;;;;;-1.40;99.90;;;;;;5054628;28;19989;-50
2023/03/11 06:31:06;;;;;;;;;;;-1.50;99.90;;;;;;5060229;28;19985;-52
2023/03/11 06:33:33;;;;;;;;;;;-1.50;99.90;;;;;;5055742;28;19955;-48
2023/03/11 06:35:59;;;;;;;;;;;-1.50;99.90;;;;;;5074733;28;19989;-49
2023/03/11 06:38:26;;;;;;;;;;;-1.50;99.90;;;;;;5054328;28;20398;-48
2023/03/11 06:40:53;;;;;;;;;;;-1.50;99.90;;;;;;5051858;28;19940;-49
2023/03/11 06:43:21;;;;;;;;;;;-1.40;99.90;;;;;;5058613;28;19992;-43
2023/03/11 06:45:47;;;;;;;;;;;-1.40;99.90;;;;;;5051090;28;20364;-45
2023/03/11 06:48:14;;;;;;;;;;;-1.40;99.90;;;;;;5054364;28;20342;-46
2023/03/11 06:50:41;;;;;;;;;;;-1.30;99.90;;;;;;5052715;28;19938;-46
2023/03/11 06:53:08;;;;;;;;;;;-1.40;99.90;;;;;;5056887;28;20062;-46
2023/03/11 06:55:34;;;;;;;;;;;-1.40;99.90;;;;;;5055743;28;19936;-45
2023/03/11 06:58:01;;;;;;;;;;;-1.30;99.90;;;;;;5073639;28;19941;-49
2023/03/11 07:00:30;;;;;;;;;;;-1.30;99.90;;;;;;5052822;28;19997;-43
2023/03/11 07:02:56;;;;;;;;;;;-1.10;99.90;;;;;;5050926;28;19942;-44
2023/03/11 07:05:23;;;;;;;;;;;-1.20;99.90;;;;;;5078566;28;19979;-46
2023/03/11 07:07:49;;;;;;;;;;;-1.20;99.90;;;;;;5052048;28;20405;-44
2023/03/11 07:10:16;;;;;;;;;;;-1.10;99.90;;;;;;5059635;28;20390;-45
2023/03/11 07:12:43;;;;;;;;;;;-1.10;99.90;;;;;;5072272;28;19949;-43
2023/03/11 07:15:10;;;;;;;;;;;-1.00;99.90;;;;;;5067723;28;20028;-43
2023/03/11 07:17:38;;;;;;;;;;;-1.00;99.90;;;;;;5068098;28;20000;-45
2023/03/11 07:20:05;;;;;;;;;;;-0.90;99.90;;;;;;5052888;28;19958;-42
2023/03/11 07:22:32;;;;;;;;;;;-0.80;99.90;;;;;;5070885;28;19939;-43
2023/03/11 07:24:58;;;;;;;;;;;-0.70;99.90;;;;;;5069484;28;19990;-40
2023/03/11 07:27:25;;;;;;;;;;;-0.50;99.90;;;;;;5075541;28;19980;-47
2023/03/11 07:29:51;;;;;;;;;;;-0.40;99.90;;;;;;5070727;28;20034;-45
2023/03/11 07:32:18;;;;;;;;;;;-0.30;99.90;;;;;;5051846;28;19945;-45
2023/03/11 07:34:46;;;;;;;;;;;-0.20;99.90;;;;;;5052701;28;20013;-48
2023/03/11 07:37:13;;;;;;;;;;;-0.10;99.90;;;;;;5064967;28;20054;-46
2023/03/11 07:39:39;;;;;;;;;;;0.00;99.90;;;;;;5050513;28;20339;-46
2023/03/11 07:42:06;;;;;;;;;;;0.10;99.90;;;;;;5047240;28;19937;-46
2023/03/11 07:44:33;;;;;;;;;;;0.20;99.90;;;;;;5070804;28;19937;-47
2023/03/11 07:47:01;;;;;;;;;;;0.40;99.90;;;;;;5078229;28;20393;-44
2023/03/11 07:49:28;;;;;;;;;;;0.50;99.90;;;;;;5070594;28;20013;-47
2023/03/11 07:51:56;;;;;;;;;;;0.60;99.90;;;;;;5052667;28;19977;-47
2023/03/11 07:54:22;;;;;;;;;;;0.70;99.90;;;;;;5050473;28;20040;-47
2023/03/11 07:56:49;;;;;;;;;;;0.90;99.90;;;;;;5057408;28;19972;-46
2023/03/11 07:59:16;;;;;;;;;;;1.00;99.90;;;;;;5072057;28;19940;-43
2023/03/11 08:01:45;;;;;;;;;;;1.20;99.90;;;;;;5070801;28;19940;-46
2023/03/11 08:04:13;;;;;;;;;;;1.30;99.90;;;;;;5069126;28;19995;-47
2023/03/11 08:06:39;;;;;;;;;;;1.50;99.90;;;;;;5070508;28;19993;-48
2023/03/11 08:09:08;;;;;;;;;;;1.50;99.90;;;;;;5069104;28;19941;-45
2023/03/11 08:11:35;;;;;;;;;;;1.60;99.90;;;;;;5059255;28;19942;-46
2023/03/11 08:14:02;;;;;;;;;;;1.80;99.90;;;;;;5054048;28;20018;-49
2023/03/11 08:16:29;;;;;;;;;;;2.00;99.90;;;;;;5053114;28;19998;-47
2023/03/11 08:18:56;;;;;;;;;;;2.00;99.90;;;;;;5070858;28;19941;-45
2023/03/11 08:21:23;;;;;;;;;;;2.20;99.90;;;;;;5070948;28;19940;-46
2023/03/11 08:23:50;;;;;;;;;;;2.20;99.90;;;;;;5054306;28;19943;-49
2023/03/11 08:26:18;;;;;;;;;;;2.40;99.90;;;;;;5053644;28;20026;-50
2023/03/11 08:28:45;;;;;;;;;;;2.50;99.90;;;;;;5071281;28;19940;-47
2023/03/11 08:31:12;;;;;;;;;;;2.60;99.90;;;;;;5053105;28;19992;-45
2023/03/11 08:33:38;;;;;;;;;;;2.70;99.90;;;;;;5070434;28;20018;-44
2023/03/11 08:36:05;;;;;;;;;;;2.90;99.90;;;;;;5070662;28;19993;-42
2023/03/11 08:38:32;;;;;;;;;;;3.00;99.90;;;;;;5050275;28;19991;-42
2023/03/11 08:40:59;;;;;;;;;;;3.10;99.90;;;;;;5050451;28;20093;-47
2023/03/11 08:43:27;;;;;;;;;;;3.20;99.90;;;;;;5056915;28;19949;-44
2023/03/11 08:45:54;;;;;;;;;;;3.30;99.90;;;;;;5057179;28;19942;-44
2023/03/11 08:48:22;;;;;;;;;;;3.40;99.90;;;;;;5056297;28;20036;-43
2023/03/11 08:50:49;;;;;;;;;;;3.50;99.90;;;;;;5054711;28;20340;-43
2023/03/11 08:53:15;;;;;;;;;;;3.50;99.90;;;;;;5052825;28;20001;-42
2023/03/11 08:55:42;;;;;;;;;;;3.70;99.90;;;;;;5055546;28;19940;-41
2023/03/11 08:58:08;;;;;;;;;;;3.80;99.90;;;;;;5043551;28;19954;-45
2023/03/11 09:00:36;;;;;;;;;;;3.90;99.90;;;;;;5053730;28;19949;-44
2023/03/11 09:03:03;;;;;;;;;;;3.90;99.90;;;;;;5052371;28;19947;-47
2023/03/11 09:05:30;;;;;;;;;;;4.00;99.90;;;;;;5065425;28;19998;-49
2023/03/11 09:07:56;;;;;;;;;;;4.10;99.90;;;;;;5071313;28;19941;-45
2023/03/11 09:10:23;;;;;;;;;;;4.10;99.90;;;;;;5071045;28;20441;-44
2023/03/11 09:12:50;;;;;;;;;;;4.20;99.90;;;;;;5050422;28;19983;-49
2023/03/11 09:15:16;;;;;;;;;;;4.30;99.90;;;;;;5053680;28;21393;-47
2023/03/11 09:17:44;;;;;;;;;;;4.40;99.90;;;;;;5056237;28;19973;-47
2023/03/11 09:20:12;;;;;;;;;;;4.60;99.90;;;;;;5070706;28;20463;-47
2023/03/11 09:22:39;;;;;;;;;;;4.60;99.90;;;;;;5048847;28;19941;-44
2023/03/11 09:25:06;;;;;;;;;;;4.70;99.90;;;;;;5069950;28;20349;-47
2023/03/11 09:27:32;;;;;;;;;;;4.80;99.90;;;;;;5074532;28;20029;-43
2023/03/11 09:29:59;;;;;;;;;;;4.80;99.90;;;;;;5055433;28;20006;-45
2023/03/11 09:32:26;;;;;;;;;;;4.90;99.90;;;;;;5073259;28;19949;-49
2023/03/11 09:34:54;;;;;;;;;;;5.00;99.90;;;;;;5073227;28;20458;-48
2023/03/11 09:37:20;;;;;;;;;;;5.10;99.90;;;;;;5043952;28;20002;-49
2023/03/11 09:39:47;;;;;;;;;;;5.20;99.90;;;;;;5053460;28;19989;-48
2023/03/11 09:42:19;;;;;;;;;;;5.10;99.90;;;;;;5056428;28;20000;-45
2023/03/11 09:44:49;;;;;;;;;;;5.20;99.90;;;;;;5073525;28;19951;-45
2023/03/11 09:47:19;;;;;;;;;;;5.20;99.90;;;;;;5055411;28;20041;-44
2023/03/11 09:49:49;;;;;;;;;;;5.30;99.90;;;;;;5055790;28;20357;-50
2023/03/11 09:52:18;;;;;;;;;;;5.40;99.90;;;;;;5079837;28;20006;-48
2023/03/11 09:54:46;;;;;;;;;;;5.40;99.90;;;;;;5055235;28;19954;-54
2023/03/11 09:57:14;;;;;;;;;;;5.50;99.90;;;;;;5055453;28;19940;-55
2023/03/11 09:59:44;;;;;;;;;;;5.60;99.90;;;;;;5067357;28;19941;-53
2023/03/11 10:02:11;;;;;;;;;;;5.60;99.90;;;;;;5073113;28;19987;-43
2023/03/11 10:04:38;;;;;;;;;;;5.70;99.90;;;;;;5071045;28;19938;-58
2023/03/11 10:07:06;;;;;;;;;;;5.80;99.90;;;;;;5073296;28;19965;-50
2023/03/11 10:09:35;;;;;;;;;;;5.80;99.90;;;;;;5056351;28;20004;-57
2023/03/11 10:12:07;;;;;;;;;;;5.80;99.90;;;;;;5071233;28;19999;-57
2023/03/11 10:14:41;;;;;;;;;;;5.80;99.90;;;;;;5051737;28;20000;-56
2023/03/11 10:17:10;;;;;;;;;;;5.90;99.90;;;;;;5054577;28;19960;-55
2023/03/11 10:19:38;;;;;;;;;;;5.90;99.90;;;;;;5050618;28;20370;-56
2023/03/11 10:22:08;;;;;;;;;;;6.00;99.90;;;;;;5050298;28;20389;-56
2023/03/11 10:24:49;;;;;;;;;;;5.90;99.90;;;;;;5051833;28;20394;-54
2023/03/11 10:27:19;;;;;;;;;;;5.90;99.90;;;;;;5064218;28;19945;-53
2023/03/11 10:29:48;;;;;;;;;;;5.90;99.90;;;;;;5054221;28;19981;-49
2023/03/11 10:32:15;;;;;;;;;;;5.90;99.90;;;;;;5054782;28;20407;-46
2023/03/11 10:34:42;;;;;;;;;;;5.90;99.90;;;;;;5072001;28;19956;-47
2023/03/11 10:37:10;;;;;;;;;;;5.90;99.90;;;;;;5053725;28;19941;-48
2023/03/11 10:39:40;;;;;;;;;;;5.90;99.90;;;;;;5072934;28;20243;-51
2023/03/11 10:42:10;;;;;;;;;;;6.00;99.90;;;;;;5060725;28;19969;-42
2023/03/11 10:44:38;;;;;;;;;;;6.00;99.90;;;;;;5071325;28;19996;-47
2023/03/11 10:47:05;;;;;;;;;;;6.10;99.90;;;;;;5072320;28;19942;-46
2023/03/11 10:49:32;;;;;;;;;;;6.20;99.90;;;;;;5071786;28;20322;-50
2023/03/11 10:51:59;;;;;;;;;;;6.30;99.90;;;;;;5054390;28;20432;-44
2023/03/11 10:54:27;;;;;;;;;;;6.40;99.90;;;;;;5080980;28;20370;-43
2023/03/11 10:56:57;;;;;;;;;;;6.40;99.90;;;;;;5053239;28;19978;-45
2023/03/11 10:59:25;;;;;;;;;;;6.50;99.90;;;;;;5070881;28;19941;-42
2023/03/11 11:01:56;;;;;;;;;;;6.50;99.90;;;;;;5053923;28;19996;-47
2023/03/11 11:04:25;;;;;;;;;;;6.50;99.90;;;;;;5054122;28;20008;-47
2023/03/11 11:06:52;;;;;;;;;;;6.50;99.90;;;;;;5072345;28;19947;-46
2023/03/11 11:09:19;;;;;;;;;;;6.50;99.90;;;;;;5065140;28;20035;-41
2023/03/11 11:12:02;;;;;;;;;;;6.50;99.90;;;;;;5064186;28;19946;-49
2023/03/11 11:14:44;;;;;;;;;;;6.50;99.90;;;;;;5068952;28;20006;-48
2023/03/11 11:17:17;;;;;;;;;;;6.60;99.90;;;;;;5073895;28;20316;-49
2023/03/11 11:19:44;;;;;;;;;;;6.70;99.90;;;;;;5053898;28;20002;-49
2023/03/11 11:22:11;;;;;;;;;;;6.80;99.90;;;;;;5053782;28;19948;-47
2023/03/11 11:24:43;;;;;;;;;;;6.80;99.90;;;;;;5053279;28;20124;-45
2023/03/11 11:27:15;;;;;;;;;;;6.80;99.90;;;;;;5072641;28;19955;-45
2023/03/11 11:29:42;;;;;;;;;;;6.80;99.90;;;;;;5059196;28;19944;-45
2023/03/11 11:32:20;;;;;;;;;;;6.80;99.90;;;;;;5058762;28;19944;-48
2023/03/11 11:34:54;;;;;;;;;;;6.90;99.90;;;;;;5055022;28;19959;-48
2023/03/11 11:37:21;;;;;;;;;;;6.90;99.90;;;;;;5044177;28;19953;-49
2023/03/11 11:39:50;;;;;;;;;;;7.00;99.90;;;;;;5056047;28;20395;-45
2023/03/11 11:42:17;;;;;;;;;;;7.00;99.90;;;;;;5068530;28;19983;-46
2023/03/11 11:44:43;;;;;;;;;;;6.90;99.90;;;;;;5077099;28;20305;-43
2023/03/11 11:47:11;;;;;;;;;;;6.90;99.90;;;;;;5051590;28;20214;-48
2023/03/11 11:49:44;;;;;;;;;;;6.90;99.90;;;;;;5054624;28;19940;-50
2023/03/11 11:52:12;;;;;;;;;;;6.90;99.90;;;;;;5051778;28;19981;-45
2023/03/11 11:54:38;;;;;;;;;;;6.90;99.90;;;;;;5049408;28;19990;-49
2023/03/11 11:57:10;;;;;;;;;;;6.90;99.90;;;;;;5047331;28;20423;-46
2023/03/11 11:59:36;;;;;;;;;;;6.90;99.90;;;;;;5047034;28;19993;-49
2023/03/11 12:02:06;;;;;;;;;;;6.90;99.90;;;;;;5065840;28;20004;-49
2023/03/11 12:04:42;;;;;;;;;;;7.10;99.90;;;;;;5053432;28;19988;-50
2023/03/11 12:07:17;;;;;;;;;;;7.10;99.90;;;;;;5062369;28;20338;-47
2023/03/11 12:09:46;;;;;;;;;;;7.10;99.90;;;;;;5048699;28;19937;-45
2023/03/11 12:12:15;;;;;;;;;;;7.00;99.90;;;;;;5063365;28;20347;-47
2023/03/11 12:14:43;;;;;;;;;;;7.00;99.90;;;;;;5040232;28;19993;-51
2023/03/11 12:17:10;;;;;;;;;;;6.90;99.90;;;;;;5068398;28;19943;-49
2023/03/11 12:19:39;;;;;;;;;;;6.90;99.90;;;;;;5048811;28;20421;-51
2023/03/11 12:22:20;;;;;;;;;;;6.90;99.90;;;;;;5069854;28;19952;-46
2023/03/11 12:24:52;;;;;;;;;;;7.00;99.90;;;;;;5066241;28;19979;-45
2023/03/11 12:27:20;;;;;;;;;;;7.10;99.90;;;;;;5062215;28;19949;-45
2023/03/11 12:29:47;;;;;;;;;;;7.20;99.90;;;;;;5047602;28;19952;-48
2023/03/11 12:32:16;;;;;;;;;;;7.10;99.90;;;;;;5068110;28;19988;-47
2023/03/11 12:34:42;;;;;;;;;;;7.00;99.90;;;;;;5066072;28;19957;-44
2023/03/11 12:37:12;;;;;;;;;;;7.10;99.90;;;;;;5057517;28;19947;-47
2023/03/11 12:39:39;;;;;;;;;;;7.00;99.90;;;;;;5072131;28;20382;-46
2023/03/11 12:42:16;;;;;;;;;;;7.00;99.90;;;;;;5059492;28;19948;-46
2023/03/11 12:44:43;;;;;;;;;;;7.10;99.90;;;;;;5073463;28;20000;-43
2023/03/11 12:47:23;;;;;;;;;;;7.10;99.90;;;;;;5069386;28;20009;-44
2023/03/11 12:49:50;;;;;;;;;;;7.00;99.90;;;;;;5063035;28;19950;-46
2023/03/11 12:52:18;;;;;;;;;;;6.90;99.90;;;;;;5073148;28;19944;-48
2023/03/11 12:54:44;;;;;;;;;;;6.80;99.90;;;;;;5064368;28;20022;-45
2023/03/11 12:57:15;;;;;;;;;;;6.90;99.90;;;;;;5053391;28;19951;-48
2023/03/11 12:59:57;;;;;;;;;;;6.90;99.90;;;;;;5054328;28;19992;-45
2023/03/11 13:02:26;;;;;;;;;;;6.90;99.90;;;;;;5064521;28;19945;-43
2023/03/11 13:04:55;;;;;;;;;;;7.00;99.90;;;;;;5072043;28;20413;-43
2023/03/11 13:07:39;;;;;;;;;;;7.10;99.90;;;;;;5052070;28;19994;-45
2023/03/11 13:10:12;;;;;;;;;;;7.10;99.90;;;;;;5051498;28;20020;-49
2023/03/11 13:12:40;;;;;;;;;;;7.10;99.90;;;;;;5073356;28;19988;-45
2023/03/11 13:15:41;;;;;;;;;;;7.20;99.90;;;;;;5074326;28;19955;-45
2023/03/11 13:18:16;;;;;;;;;;;7.20;99.90;;;;;;4992686;28;19980;-47
2023/03/11 13:20:48;;;;;;;;;;;7.20;99.90;;;;;;4992796;28;19963;-44
2023/03/11 13:23:33;;;;;;;;;;;7.20;99.90;;;;;;5019916;28;20378;-44
2023/03/11 13:26:27;;;;;;;;;;;7.20;99.90;;;;;;5055942;28;19954;-49
2023/03/11 13:29:00;;;;;;;;;;;7.20;99.90;;;;;;5058945;28;19940;-45
2023/03/11 13:31:32;;;;;;;;;;;7.30;99.90;;;;;;5052809;28;20362;-47
2023/03/11 13:34:00;;;;;;;;;;;7.30;99.90;;;;;;5070937;28;19967;-46
2023/03/11 13:36:34;;;;;;;;;;;7.40;99.90;;;;;;5071862;28;19998;-49
2023/03/11 13:39:20;;;;;;;;;;;7.30;99.90;;;;;;5039402;28;19953;-45
2023/03/11 13:41:46;;;;;;;;;;;7.30;99.90;;;;;;5036441;28;19946;-51
2023/03/11 13:44:14;;;;;;;;;;;7.30;99.90;;;;;;5069331;28;19936;-48
2023/03/11 13:46:41;;;;;;;;;;;7.40;99.90;;;;;;5071862;28;20363;-47
2023/03/11 13:49:12;;;;;;;;;;;7.40;99.90;;;;;;5042999;28;20024;-46
2023/03/11 13:51:40;;;;;;;;;;;7.40;99.90;;;;;;5072205;28;19956;-45
2023/03/11 13:54:09;;;;;;;;;;;7.50;99.90;;;;;;5053534;28;20326;-51
2023/03/11 13:56:37;;;;;;;;;;;7.50;99.90;;;;;;5077001;28;19962;-46
2023/03/11 13:59:16;;;;;;;;;;;7.60;99.90;;;;;;5065079;28;19999;-47
2023/03/11 14:01:47;;;;;;;;;;;7.70;99.90;;;;;;5068944;28;20632;-48
2023/03/11 14:04:16;;;;;;;;;;;7.70;99.90;;;;;;5064871;28;19982;-46
2023/03/11 14:06:43;;;;;;;;;;;7.70;99.90;;;;;;5061553;28;19939;-48
2023/03/11 14:09:15;;;;;;;;;;;7.70;99.90;;;;;;5049591;28;19942;-52
2023/03/11 14:11:46;;;;;;;;;;;7.60;99.90;;;;;;5067992;28;20395;-44
2023/03/11 14:14:19;;;;;;;;;;;7.70;99.90;;;;;;5048854;28;19996;-47
2023/03/11 14:16:46;;;;;;;;;;;7.70;99.90;;;;;;5070074;28;20018;-45
2023/03/11 14:19:14;;;;;;;;;;;7.60;99.90;;;;;;5047681;28;20385;-50
2023/03/11 14:21:42;;;;;;;;;;;7.60;99.90;;;;;;5071161;28;19940;-48
2023/03/11 14:24:14;;;;;;;;;;;7.50;99.90;;;;;;5049938;28;20397;-46
2023/03/11 14:26:41;;;;;;;;;;;7.40;99.90;;;;;;5069265;28;20001;-48
2023/03/11 14:29:09;;;;;;;;;;;7.50;99.90;;;;;;5070470;28;20387;-45
2023/03/11 14:31:36;;;;;;;;;;;7.40;99.90;;;;;;5054901;28;19942;-45